sensor_id;sensor_type;location;lat;lon;timestamp;temperature;humidity
24636;DHT22;12772;49.794;10.024;2022-12-04T00:03:44;4.60;55.40
24636;DHT22;12772;49.794;10.024;2022-12-04T00:07:46;4.60;55.40
24636;DHT22;12772;49.794;10.024;2022-12-04T00:11:48;4.30;55.20
24636;DHT22;12772;49.794;10.024;2022-12-04T00:15:51;4.70;55.90
24636;DHT22;12772;49.794;10.024;2022-12-04T00:19:53;4.60;55.80
24636;DHT22;12772;49.794;10.024;2022-12-04T00:23:55;4.40;55.70
24636;DHT22;12772;49.794;10.024;2022-12-04T00:27:57;4.80;56.00
24636;DHT22;12772;49.794;10.024;2022-12-04T00:31:59;4.40;55.30
24636;DHT22;12772;49.794;10.024;2022-12-04T00:36:04;4.80;55.70
24636;DHT22;12772;49.794;10.024;2022-12-04T00:40:07;5.00;55.90
24636;DHT22;12772;49.794;10.024;2022-12-04T00:44:09;5.00;55.80
24636;DHT22;12772;49.794;10.024;2022-12-04T00:48:12;5.20;55.80
24636;DHT22;12772;49.794;10.024;2022-12-04T00:52:14;5.00;55.50
24636;DHT22;12772;49.794;10.024;2022-12-04T00:56:19;5.20;55.60
24636;DHT22;12772;49.794;10.024;2022-12-04T01:00:22;5.10;55.30
24636;DHT22;12772;49.794;10.024;2022-12-04T01:04:24;4.90;55.00
24636;DHT22;12772;49.794;10.024;2022-12-04T01:08:26;5.20;55.20
24636;DHT22;12772;49.794;10.024;2022-12-04T01:12:28;5.40;55.10
24636;DHT22;12772;49.794;10.024;2022-12-04T01:16:33;4.90;54.70
24636;DHT22;12772;49.794;10.024;2022-12-04T01:20:36;5.10;55.00
24636;DHT22;12772;49.794;10.024;2022-12-04T01:24:38;5.30;55.10
24636;DHT22;12772;49.794;10.024;2022-12-04T01:28:41;5.30;55.20
24636;DHT22;12772;49.794;10.024;2022-12-04T01:32:43;4.90;54.80
24636;DHT22;12772;49.794;10.024;2022-12-04T01:36:45;4.80;54.70
24636;DHT22;12772;49.794;10.024;2022-12-04T01:40:48;5.10;55.00
24636;DHT22;12772;49.794;10.024;2022-12-04T01:45:32;5.20;55.20
24636;DHT22;12772;49.794;10.024;2022-12-04T01:49:47;5.20;55.30
24636;DHT22;12772;49.794;10.024;2022-12-04T01:53:52;5.20;55.30
24636;DHT22;12772;49.794;10.024;2022-12-04T01:57:56;5.20;55.40
24636;DHT22;12772;49.794;10.024;2022-12-04T02:02:03;5.10;55.60
24636;DHT22;12772;49.794;10.024;2022-12-04T02:06:06;5.10;55.60
24636;DHT22;12772;49.794;10.024;2022-12-04T02:10:09;5.00;55.40
24636;DHT22;12772;49.794;10.024;2022-12-04T02:14:30;5.30;55.80
24636;DHT22;12772;49.794;10.024;2022-12-04T02:18:56;4.90;55.30
24636;DHT22;12772;49.794;10.024;2022-12-04T02:23:16;5.20;55.80
24636;DHT22;12772;49.794;10.024;2022-12-04T02:36:14;5.00;55.40
24636;DHT22;12772;49.794;10.024;2022-12-04T02:40:25;5.10;55.50
24636;DHT22;12772;49.794;10.024;2022-12-04T02:44:36;5.30;55.70
24636;DHT22;12772;49.794;10.024;2022-12-04T02:48:44;5.30;55.50
24636;DHT22;12772;49.794;10.024;2022-12-04T02:52:52;4.70;54.80
24636;DHT22;12772;49.794;10.024;2022-12-04T02:56:55;5.10;55.30
24636;DHT22;12772;49.794;10.024;2022-12-04T03:01:00;5.10;55.30
24636;DHT22;12772;49.794;10.024;2022-12-04T03:05:08;5.10;55.30
24636;DHT22;12772;49.794;10.024;2022-12-04T03:09:16;5.30;55.50
24636;DHT22;12772;49.794;10.024;2022-12-04T03:13:21;5.30;55.40
24636;DHT22;12772;49.794;10.024;2022-12-04T03:17:37;5.40;55.40
24636;DHT22;12772;49.794;10.024;2022-12-04T03:21:47;5.30;55.40
24636;DHT22;12772;49.794;10.024;2022-12-04T03:26:26;5.30;55.60
24636;DHT22;12772;49.794;10.024;2022-12-04T03:30:35;5.20;55.60
24636;DHT22;12772;49.794;10.024;2022-12-04T03:39:34;5.10;55.40
24636;DHT22;12772;49.794;10.024;2022-12-04T03:48:04;5.10;55.70
24636;DHT22;12772;49.794;10.024;2022-12-04T03:52:28;5.10;55.70
24636;DHT22;12772;49.794;10.024;2022-12-04T03:56:34;5.10;55.70
24636;DHT22;12772;49.794;10.024;2022-12-04T04:00:41;4.70;55.50
24636;DHT22;12772;49.794;10.024;2022-12-04T04:04:48;5.10;55.80
24636;DHT22;12772;49.794;10.024;2022-12-04T04:08:54;5.10;55.70
24636;DHT22;12772;49.794;10.024;2022-12-04T04:13:00;5.20;55.80
24636;DHT22;12772;49.794;10.024;2022-12-04T04:17:24;5.30;56.00
24636;DHT22;12772;49.794;10.024;2022-12-04T04:21:48;5.20;55.90
24636;DHT22;12772;49.794;10.024;2022-12-04T04:26:10;5.20;56.10
24636;DHT22;12772;49.794;10.024;2022-12-04T04:30:13;4.80;55.70
24636;DHT22;12772;49.794;10.024;2022-12-04T04:38:40;5.40;56.30
24636;DHT22;12772;49.794;10.024;2022-12-04T04:42:51;5.30;56.30
24636;DHT22;12772;49.794;10.024;2022-12-04T04:46:59;5.50;56.50
24636;DHT22;12772;49.794;10.024;2022-12-04T04:51:03;5.30;56.30
24636;DHT22;12772;49.794;10.024;2022-12-04T04:55:06;5.30;56.10
24636;DHT22;12772;49.794;10.024;2022-12-04T04:59:09;5.30;56.10
24636;DHT22;12772;49.794;10.024;2022-12-04T05:03:12;5.50;56.20
24636;DHT22;12772;49.794;10.024;2022-12-04T05:07:14;5.50;56.30
24636;DHT22;12772;49.794;10.024;2022-12-04T05:11:16;5.00;55.60
24636;DHT22;12772;49.794;10.024;2022-12-04T05:15:18;5.50;56.00
24636;DHT22;12772;49.794;10.024;2022-12-04T05:19:20;5.20;55.70
24636;DHT22;12772;49.794;10.024;2022-12-04T05:23:40;5.20;55.70
24636;DHT22;12772;49.794;10.024;2022-12-04T05:27:42;5.40;56.10
24636;DHT22;12772;49.794;10.024;2022-12-04T05:31:44;5.20;55.90
24636;DHT22;12772;49.794;10.024;2022-12-04T05:36:01;5.30;56.10
24636;DHT22;12772;49.794;10.024;2022-12-04T05:40:05;5.30;56.10
24636;DHT22;12772;49.794;10.024;2022-12-04T05:44:08;5.40;56.20
24636;DHT22;12772;49.794;10.024;2022-12-04T05:48:10;5.30;56.20
24636;DHT22;12772;49.794;10.024;2022-12-04T05:52:12;5.10;56.00
24636;DHT22;12772;49.794;10.024;2022-12-04T05:56:15;5.40;56.40
24636;DHT22;12772;49.794;10.024;2022-12-04T06:00:17;5.00;55.90
24636;DHT22;12772;49.794;10.024;2022-12-04T06:04:19;5.50;56.50
24636;DHT22;12772;49.794;10.024;2022-12-04T06:08:21;5.50;56.60
24636;DHT22;12772;49.794;10.024;2022-12-04T06:12:23;5.00;56.00
24636;DHT22;12772;49.794;10.024;2022-12-04T06:16:30;5.00;56.10
24636;DHT22;12772;49.794;10.024;2022-12-04T06:20:33;5.40;56.40
24636;DHT22;12772;49.794;10.024;2022-12-04T06:24:35;5.60;56.70
24636;DHT22;12772;49.794;10.024;2022-12-04T06:28:37;5.40;56.50
24636;DHT22;12772;49.794;10.024;2022-12-04T06:32:39;5.40;56.40
24636;DHT22;12772;49.794;10.024;2022-12-04T06:36:41;5.10;56.10
24636;DHT22;12772;49.794;10.024;2022-12-04T06:40:44;5.50;56.60
24636;DHT22;12772;49.794;10.024;2022-12-04T06:44:46;5.50;56.60
24636;DHT22;12772;49.794;10.024;2022-12-04T06:48:48;5.70;56.60
24636;DHT22;12772;49.794;10.024;2022-12-04T06:52:51;5.50;56.40
24636;DHT22;12772;49.794;10.024;2022-12-04T06:56:53;5.50;56.30
24636;DHT22;12772;49.794;10.024;2022-12-04T07:00:56;5.50;56.30
24636;DHT22;12772;49.794;10.024;2022-12-04T07:04:58;5.40;56.20
24636;DHT22;12772;49.794;10.024;2022-12-04T07:09:06;5.50;56.50
24636;DHT22;12772;49.794;10.024;2022-12-04T07:13:10;5.60;56.50
24636;DHT22;12772;49.794;10.024;2022-12-04T07:17:12;5.50;56.50
24636;DHT22;12772;49.794;10.024;2022-12-04T07:21:16;5.40;56.40
24636;DHT22;12772;49.794;10.024;2022-12-04T07:25:18;5.30;56.50
24636;DHT22;12772;49.794;10.024;2022-12-04T07:29:20;5.60;56.80
24636;DHT22;12772;49.794;10.024;2022-12-04T07:33:23;5.40;56.40
24636;DHT22;12772;49.794;10.024;2022-12-04T07:37:25;5.80;56.90
24636;DHT22;12772;49.794;10.024;2022-12-04T07:41:27;5.60;56.80
24636;DHT22;12772;49.794;10.024;2022-12-04T07:45:29;5.10;56.40
24636;DHT22;12772;49.794;10.024;2022-12-04T07:49:31;5.50;56.80
24636;DHT22;12772;49.794;10.024;2022-12-04T07:53:34;5.50;56.90
24636;DHT22;12772;49.794;10.024;2022-12-04T07:57:36;5.50;56.90
24636;DHT22;12772;49.794;10.024;2022-12-04T08:01:38;5.50;56.90
24636;DHT22;12772;49.794;10.024;2022-12-04T08:05:40;5.40;57.00
24636;DHT22;12772;49.794;10.024;2022-12-04T08:09:42;5.40;57.20
24636;DHT22;12772;49.794;10.024;2022-12-04T08:13:45;5.00;56.90
24636;DHT22;12772;49.794;10.024;2022-12-04T08:17:47;5.00;56.70
24636;DHT22;12772;49.794;10.024;2022-12-04T08:21:49;5.60;57.30
24636;DHT22;12772;49.794;10.024;2022-12-04T08:25:51;5.90;57.60
24636;DHT22;12772;49.794;10.024;2022-12-04T08:29:53;5.40;56.90
24636;DHT22;12772;49.794;10.024;2022-12-04T08:33:56;6.00;57.40
24636;DHT22;12772;49.794;10.024;2022-12-04T08:37:59;5.90;57.20
24636;DHT22;12772;49.794;10.024;2022-12-04T08:42:01;5.70;57.00
24636;DHT22;12772;49.794;10.024;2022-12-04T08:46:11;5.90;57.20
24636;DHT22;12772;49.794;10.024;2022-12-04T08:50:14;5.80;57.00
24636;DHT22;12772;49.794;10.024;2022-12-04T08:54:17;5.80;57.00
24636;DHT22;12772;49.794;10.024;2022-12-04T08:58:19;5.90;56.80
24636;DHT22;12772;49.794;10.024;2022-12-04T09:02:21;5.80;57.00
24636;DHT22;12772;49.794;10.024;2022-12-04T09:06:23;5.90;57.10
24636;DHT22;12772;49.794;10.024;2022-12-04T09:10:25;5.70;56.80
24636;DHT22;12772;49.794;10.024;2022-12-04T09:14:27;6.10;57.20
24636;DHT22;12772;49.794;10.024;2022-12-04T09:18:29;6.00;56.90
24636;DHT22;12772;49.794;10.024;2022-12-04T09:22:33;6.20;57.20
24636;DHT22;12772;49.794;10.024;2022-12-04T09:26:35;6.00;57.00
24636;DHT22;12772;49.794;10.024;2022-12-04T09:30:38;5.90;56.90
24636;DHT22;12772;49.794;10.024;2022-12-04T09:34:39;5.60;56.80
24636;DHT22;12772;49.794;10.024;2022-12-04T09:38:46;6.00;57.00
24636;DHT22;12772;49.794;10.024;2022-12-04T09:43:01;6.10;57.10
24636;DHT22;12772;49.794;10.024;2022-12-04T09:47:30;6.10;57.00
24636;DHT22;12772;49.794;10.024;2022-12-04T09:51:34;6.30;57.30
24636;DHT22;12772;49.794;10.024;2022-12-04T09:55:44;6.20;57.10
24636;DHT22;12772;49.794;10.024;2022-12-04T09:59:49;5.80;56.60
24636;DHT22;12772;49.794;10.024;2022-12-04T10:03:53;6.30;57.00
24636;DHT22;12772;49.794;10.024;2022-12-04T10:08:03;6.40;57.00
24636;DHT22;12772;49.794;10.024;2022-12-04T10:12:35;6.50;56.80
24636;DHT22;12772;49.794;10.024;2022-12-04T10:21:23;6.40;56.60
24636;DHT22;12772;49.794;10.024;2022-12-04T10:25:27;6.20;56.50
24636;DHT22;12772;49.794;10.024;2022-12-04T10:29:33;6.00;56.30
24636;DHT22;12772;49.794;10.024;2022-12-04T10:33:58;6.40;56.60
24636;DHT22;12772;49.794;10.024;2022-12-04T10:38:08;6.40;56.60
24636;DHT22;12772;49.794;10.024;2022-12-04T10:42:37;6.40;56.60
24636;DHT22;12772;49.794;10.024;2022-12-04T10:46:42;6.40;56.80
24636;DHT22;12772;49.794;10.024;2022-12-04T10:50:44;6.40;56.80
24636;DHT22;12772;49.794;10.024;2022-12-04T10:54:55;6.00;56.50
24636;DHT22;12772;49.794;10.024;2022-12-04T10:59:00;6.60;57.00
24636;DHT22;12772;49.794;10.024;2022-12-04T11:03:21;6.50;56.90
24636;DHT22;12772;49.794;10.024;2022-12-04T11:07:30;6.60;56.90
24636;DHT22;12772;49.794;10.024;2022-12-04T11:11:34;6.10;56.20
24636;DHT22;12772;49.794;10.024;2022-12-04T11:15:51;6.40;56.40
24636;DHT22;12772;49.794;10.024;2022-12-04T11:20:11;6.50;56.50
24636;DHT22;12772;49.794;10.024;2022-12-04T11:24:24;6.60;56.50
24636;DHT22;12772;49.794;10.024;2022-12-04T11:28:29;6.80;56.70
24636;DHT22;12772;49.794;10.024;2022-12-04T11:32:34;6.70;56.40
24636;DHT22;12772;49.794;10.024;2022-12-04T11:36:38;6.30;55.90
24636;DHT22;12772;49.794;10.024;2022-12-04T11:40:49;6.70;56.20
24636;DHT22;12772;49.794;10.024;2022-12-04T11:45:21;6.20;55.80
24636;DHT22;12772;49.794;10.024;2022-12-04T11:49:25;6.90;56.50
24636;DHT22;12772;49.794;10.024;2022-12-04T12:06:25;6.50;56.60
24636;DHT22;12772;49.794;10.024;2022-12-04T12:36:55;7.10;57.10
24636;DHT22;12772;49.794;10.024;2022-12-04T12:41:03;6.50;56.50
24636;DHT22;12772;49.794;10.024;2022-12-04T12:45:19;7.10;56.90
24636;DHT22;12772;49.794;10.024;2022-12-04T12:49:35;7.00;56.80
24636;DHT22;12772;49.794;10.024;2022-12-04T12:53:42;6.50;56.20
24636;DHT22;12772;49.794;10.024;2022-12-04T13:11:27;7.00;56.50
24636;DHT22;12772;49.794;10.024;2022-12-04T13:15:42;7.10;56.60
24636;DHT22;12772;49.794;10.024;2022-12-04T13:19:52;6.90;56.30
24636;DHT22;12772;49.794;10.024;2022-12-04T13:28:46;7.10;56.60
24636;DHT22;12772;49.794;10.024;2022-12-04T13:33:00;7.20;56.70
24636;DHT22;12772;49.794;10.024;2022-12-04T13:41:36;7.20;56.70
24636;DHT22;12772;49.794;10.024;2022-12-04T13:45:39;6.90;56.30
24636;DHT22;12772;49.794;10.024;2022-12-04T13:49:41;7.20;56.80
24636;DHT22;12772;49.794;10.024;2022-12-04T13:53:45;6.90;56.40
24636;DHT22;12772;49.794;10.024;2022-12-04T13:57:56;7.00;56.50
24636;DHT22;12772;49.794;10.024;2022-12-04T14:02:17;7.40;56.80
24636;DHT22;12772;49.794;10.024;2022-12-04T14:06:33;7.10;56.50
24636;DHT22;12772;49.794;10.024;2022-12-04T14:10:37;6.90;56.40
24636;DHT22;12772;49.794;10.024;2022-12-04T14:14:53;7.20;56.60
24636;DHT22;12772;49.794;10.024;2022-12-04T14:18:58;7.10;56.60
24636;DHT22;12772;49.794;10.024;2022-12-04T14:23:08;7.00;56.90
24636;DHT22;12772;49.794;10.024;2022-12-04T14:27:41;6.70;56.80
24636;DHT22;12772;49.794;10.024;2022-12-04T14:31:43;6.80;57.10
24636;DHT22;12772;49.794;10.024;2022-12-04T14:35:57;6.80;57.30
24636;DHT22;12772;49.794;10.024;2022-12-04T14:40:02;6.70;57.30
24636;DHT22;12772;49.794;10.024;2022-12-04T14:44:04;6.80;57.70
24636;DHT22;12772;49.794;10.024;2022-12-04T14:52:32;6.80;57.60
24636;DHT22;12772;49.794;10.024;2022-12-04T15:00:49;6.80;57.90
24636;DHT22;12772;49.794;10.024;2022-12-04T15:04:52;6.70;57.80
24636;DHT22;12772;49.794;10.024;2022-12-04T15:08:59;6.10;57.50
24636;DHT22;12772;49.794;10.024;2022-12-04T15:13:30;6.70;58.20
24636;DHT22;12772;49.794;10.024;2022-12-04T15:17:32;6.60;58.30
24636;DHT22;12772;49.794;10.024;2022-12-04T15:21:41;6.60;58.40
24636;DHT22;12772;49.794;10.024;2022-12-04T15:25:45;6.80;58.60
24636;DHT22;12772;49.794;10.024;2022-12-04T15:29:48;6.60;58.50
24636;DHT22;12772;49.794;10.024;2022-12-04T15:33:59;6.70;58.50
24636;DHT22;12772;49.794;10.024;2022-12-04T15:38:02;6.50;58.30
24636;DHT22;12772;49.794;10.024;2022-12-04T15:42:14;6.50;58.20
24636;DHT22;12772;49.794;10.024;2022-12-04T15:46:29;6.90;58.70
24636;DHT22;12772;49.794;10.024;2022-12-04T15:50:31;6.30;58.20
24636;DHT22;12772;49.794;10.024;2022-12-04T15:54:33;6.20;58.10
24636;DHT22;12772;49.794;10.024;2022-12-04T15:58:39;6.60;58.60
24636;DHT22;12772;49.794;10.024;2022-12-04T16:02:42;6.70;58.70
24636;DHT22;12772;49.794;10.024;2022-12-04T16:06:46;6.20;58.20
24636;DHT22;12772;49.794;10.024;2022-12-04T16:11:19;6.30;58.20
24636;DHT22;12772;49.794;10.024;2022-12-04T16:15:26;6.60;58.60
24636;DHT22;12772;49.794;10.024;2022-12-04T16:19:37;6.50;58.80
24636;DHT22;12772;49.794;10.024;2022-12-04T16:23:40;6.50;58.80
24636;DHT22;12772;49.794;10.024;2022-12-04T16:27:42;6.20;58.30
24636;DHT22;12772;49.794;10.024;2022-12-04T16:31:44;6.50;58.60
24636;DHT22;12772;49.794;10.024;2022-12-04T16:35:46;6.10;58.20
24636;DHT22;12772;49.794;10.024;2022-12-04T16:39:49;6.50;58.40
24636;DHT22;12772;49.794;10.024;2022-12-04T16:43:59;6.50;58.40
24636;DHT22;12772;49.794;10.024;2022-12-04T16:48:01;6.50;58.60
24636;DHT22;12772;49.794;10.024;2022-12-04T16:52:03;5.90;58.00
24636;DHT22;12772;49.794;10.024;2022-12-04T16:56:06;5.90;58.30
24636;DHT22;12772;49.794;10.024;2022-12-04T17:00:12;6.50;58.90
24636;DHT22;12772;49.794;10.024;2022-12-04T17:04:16;6.40;58.70
24636;DHT22;12772;49.794;10.024;2022-12-04T17:08:18;6.50;58.90
24636;DHT22;12772;49.794;10.024;2022-12-04T17:12:20;6.00;58.20
24636;DHT22;12772;49.794;10.024;2022-12-04T17:16:23;6.50;58.90
24636;DHT22;12772;49.794;10.024;2022-12-04T17:20:25;6.40;58.90
24636;DHT22;12772;49.794;10.024;2022-12-04T17:24:28;6.30;58.90
24636;DHT22;12772;49.794;10.024;2022-12-04T17:28:30;6.20;58.90
24636;DHT22;12772;49.794;10.024;2022-12-04T17:32:33;6.40;59.00
24636;DHT22;12772;49.794;10.024;2022-12-04T17:36:35;6.40;59.00
24636;DHT22;12772;49.794;10.024;2022-12-04T17:40:37;6.60;59.30
24636;DHT22;12772;49.794;10.024;2022-12-04T17:44:39;6.50;59.10
24636;DHT22;12772;49.794;10.024;2022-12-04T17:48:42;6.40;58.90
24636;DHT22;12772;49.794;10.024;2022-12-04T17:52:44;6.40;58.90
24636;DHT22;12772;49.794;10.024;2022-12-04T17:56:46;6.50;59.10
24636;DHT22;12772;49.794;10.024;2022-12-04T18:00:48;6.50;59.00
24636;DHT22;12772;49.794;10.024;2022-12-04T18:04:53;6.40;59.90
24636;DHT22;12772;49.794;10.024;2022-12-04T18:08:56;6.60;59.40
24636;DHT22;12772;49.794;10.024;2022-12-04T18:12:58;6.40;59.30
24636;DHT22;12772;49.794;10.024;2022-12-04T18:17:00;6.10;58.90
24636;DHT22;12772;49.794;10.024;2022-12-04T18:21:13;6.50;59.20
24636;DHT22;12772;49.794;10.024;2022-12-04T18:25:15;6.10;58.80
24636;DHT22;12772;49.794;10.024;2022-12-04T18:29:21;6.40;59.00
24636;DHT22;12772;49.794;10.024;2022-12-04T18:33:23;6.50;59.20
24636;DHT22;12772;49.794;10.024;2022-12-04T18:37:25;6.60;59.00
24636;DHT22;12772;49.794;10.024;2022-12-04T18:41:28;6.60;59.00
24636;DHT22;12772;49.794;10.024;2022-12-04T18:45:30;6.60;59.00
24636;DHT22;12772;49.794;10.024;2022-12-04T18:49:32;6.10;58.30
24636;DHT22;12772;49.794;10.024;2022-12-04T18:53:34;6.70;59.00
24636;DHT22;12772;49.794;10.024;2022-12-04T18:57:36;6.40;58.70
24636;DHT22;12772;49.794;10.024;2022-12-04T19:01:39;6.60;58.90
24636;DHT22;12772;49.794;10.024;2022-12-04T19:05:49;6.20;58.50
24636;DHT22;12772;49.794;10.024;2022-12-04T19:09:53;6.50;58.90
24636;DHT22;12772;49.794;10.024;2022-12-04T19:13:57;6.60;59.00
24636;DHT22;12772;49.794;10.024;2022-12-04T19:17:59;6.70;59.00
24636;DHT22;12772;49.794;10.024;2022-12-04T19:22:02;6.60;58.90
24636;DHT22;12772;49.794;10.024;2022-12-04T19:26:04;6.60;58.90
24636;DHT22;12772;49.794;10.024;2022-12-04T19:30:07;6.80;59.20
24636;DHT22;12772;49.794;10.024;2022-12-04T19:34:10;6.20;58.80
24636;DHT22;12772;49.794;10.024;2022-12-04T19:38:12;6.10;58.90
24636;DHT22;12772;49.794;10.024;2022-12-04T19:42:14;6.80;59.70
24636;DHT22;12772;49.794;10.024;2022-12-04T19:46:19;6.80;59.70
24636;DHT22;12772;49.794;10.024;2022-12-04T19:50:22;6.30;59.40
24636;DHT22;12772;49.794;10.024;2022-12-04T19:54:24;6.60;59.70
24636;DHT22;12772;49.794;10.024;2022-12-04T19:58:28;6.30;59.50
24636;DHT22;12772;49.794;10.024;2022-12-04T20:02:31;6.60;59.90
24636;DHT22;12772;49.794;10.024;2022-12-04T20:06:36;6.70;60.20
24636;DHT22;12772;49.794;10.024;2022-12-04T20:10:38;6.50;60.10
24636;DHT22;12772;49.794;10.024;2022-12-04T20:14:40;6.50;60.20
24636;DHT22;12772;49.794;10.024;2022-12-04T20:18:42;6.70;60.30
24636;DHT22;12772;49.794;10.024;2022-12-04T20:22:45;6.50;60.20
24636;DHT22;12772;49.794;10.024;2022-12-04T20:26:47;6.70;60.30
24636;DHT22;12772;49.794;10.024;2022-12-04T20:30:49;6.40;60.10
24636;DHT22;12772;49.794;10.024;2022-12-04T20:34:52;6.80;60.20
24636;DHT22;12772;49.794;10.024;2022-12-04T20:38:56;6.70;60.20
24636;DHT22;12772;49.794;10.024;2022-12-04T20:42:58;6.70;60.30
24636;DHT22;12772;49.794;10.024;2022-12-04T20:47:00;6.70;60.30
24636;DHT22;12772;49.794;10.024;2022-12-04T20:51:03;6.80;60.30
24636;DHT22;12772;49.794;10.024;2022-12-04T20:55:05;6.90;60.50
24636;DHT22;12772;49.794;10.024;2022-12-04T20:59:10;6.60;60.20
24636;DHT22;12772;49.794;10.024;2022-12-04T21:03:12;6.60;60.20
24636;DHT22;12772;49.794;10.024;2022-12-04T21:07:14;6.50;59.80
24636;DHT22;12772;49.794;10.024;2022-12-04T21:11:16;6.70;59.90
24636;DHT22;12772;49.794;10.024;2022-12-04T21:15:18;6.90;59.90
24636;DHT22;12772;49.794;10.024;2022-12-04T21:19:38;6.70;59.80
24636;DHT22;12772;49.794;10.024;2022-12-04T21:23:40;6.90;60.00
24636;DHT22;12772;49.794;10.024;2022-12-04T21:27:42;6.60;59.80
24636;DHT22;12772;49.794;10.024;2022-12-04T21:31:44;6.30;59.60
24636;DHT22;12772;49.794;10.024;2022-12-04T21:35:46;6.70;60.00
24636;DHT22;12772;49.794;10.024;2022-12-04T21:39:48;6.30;59.70
24636;DHT22;12772;49.794;10.024;2022-12-04T21:43:50;6.60;60.00
24636;DHT22;12772;49.794;10.024;2022-12-04T21:47:52;6.10;59.40
24636;DHT22;12772;49.794;10.024;2022-12-04T21:51:55;6.50;60.10
24636;DHT22;12772;49.794;10.024;2022-12-04T21:55:57;6.60;60.20
24636;DHT22;12772;49.794;10.024;2022-12-04T21:59:59;6.80;60.20
24636;DHT22;12772;49.794;10.024;2022-12-04T22:04:01;6.10;59.70
24636;DHT22;12772;49.794;10.024;2022-12-04T22:08:03;6.20;59.80
24636;DHT22;12772;49.794;10.024;2022-12-04T22:12:06;6.30;59.80
24636;DHT22;12772;49.794;10.024;2022-12-04T22:16:11;6.70;60.30
24636;DHT22;12772;49.794;10.024;2022-12-04T22:20:14;6.60;60.30
24636;DHT22;12772;49.794;10.024;2022-12-04T22:24:16;6.60;60.40
24636;DHT22;12772;49.794;10.024;2022-12-04T22:28:18;6.50;60.50
24636;DHT22;12772;49.794;10.024;2022-12-04T22:32:20;6.40;60.50
24636;DHT22;12772;49.794;10.024;2022-12-04T22:36:25;6.60;60.70
24636;DHT22;12772;49.794;10.024;2022-12-04T22:40:27;6.40;60.30
24636;DHT22;12772;49.794;10.024;2022-12-04T22:44:29;6.70;60.30
24636;DHT22;12772;49.794;10.024;2022-12-04T22:48:33;6.70;60.40
24636;DHT22;12772;49.794;10.024;2022-12-04T22:52:35;6.80;60.60
24636;DHT22;12772;49.794;10.024;2022-12-04T22:56:37;6.80;60.60
24636;DHT22;12772;49.794;10.024;2022-12-04T23:00:40;6.80;60.50
24636;DHT22;12772;49.794;10.024;2022-12-04T23:04:42;6.80;60.50
24636;DHT22;12772;49.794;10.024;2022-12-04T23:08:44;6.60;60.30
24636;DHT22;12772;49.794;10.024;2022-12-04T23:12:47;6.90;60.50
24636;DHT22;12772;49.794;10.024;2022-12-04T23:16:49;6.50;60.70
24636;DHT22;12772;49.794;10.024;2022-12-04T23:20:51;6.30;60.10
24636;DHT22;12772;49.794;10.024;2022-12-04T23:24:53;6.50;60.30
24636;DHT22;12772;49.794;10.024;2022-12-04T23:28:56;6.70;60.50
24636;DHT22;12772;49.794;10.024;2022-12-04T23:32:58;6.30;60.20
24636;DHT22;12772;49.794;10.024;2022-12-04T23:37:00;6.60;60.50
24636;DHT22;12772;49.794;10.024;2022-12-04T23:41:07;6.80;60.80
24636;DHT22;12772;49.794;10.024;2022-12-04T23:45:13;6.60;60.70
24636;DHT22;12772;49.794;10.024;2022-12-04T23:49:17;6.50;60.60
24636;DHT22;12772;49.794;10.024;2022-12-04T23:53:20;6.70;60.80
24636;DHT22;12772;49.794;10.024;2022-12-04T23:57:23;6.40;60.50
